Webcam

2021/07/27 10:50 EBBR 271050Z 20005KT 170V250 9999 FEW022 21/15 Q1012 NOSIG

Webcam

--- Refresh now ---